createdAt,value
2018-11-05T00:03:26.593Z,13.76
2018-11-05T00:14:27.891Z,13.59
2018-11-05T00:25:30.026Z,13.53
2018-11-05T00:36:31.078Z,13.33
2018-11-05T00:47:33.277Z,13.29
2018-11-05T00:58:34.711Z,13.25
2018-11-05T01:09:37.895Z,13.24
2018-11-05T01:20:40.781Z,13.33
2018-11-05T01:31:43.341Z,13.18
2018-11-05T01:42:46.367Z,13.17
2018-11-05T01:53:47.722Z,13.24
2018-11-05T02:04:51.145Z,13.24
2018-11-05T02:15:52.758Z,13.24
2018-11-05T02:26:55.721Z,13.17
2018-11-05T02:37:56.696Z,13.10
2018-11-05T02:48:59.202Z,13.14
2018-11-05T03:00:02.002Z,13.11
2018-11-05T03:11:05.244Z,13.10
2018-11-05T03:22:08.145Z,13.14
2018-11-05T03:33:11.460Z,13.11
2018-11-05T03:44:11.534Z,13.15
2018-11-05T03:55:14.523Z,13.14
2018-11-05T04:06:17.538Z,13.11
2018-11-05T04:17:18.806Z,13.11
2018-11-05T04:28:23.058Z,13.17
2018-11-05T04:39:26.105Z,13.19
2018-11-05T04:50:28.740Z,13.18
2018-11-05T05:01:27.523Z,13.24
2018-11-05T05:12:30.946Z,13.21
2018-11-05T05:23:32.921Z,13.11
2018-11-05T05:34:35.592Z,13.10
2018-11-05T05:45:38.587Z,13.14
2018-11-05T05:56:40.915Z,13.18
2018-11-05T06:07:39.380Z,13.25
2018-11-05T06:18:42.744Z,13.28
2018-11-05T06:29:45.447Z,13.33
2018-11-05T06:40:48.503Z,13.43
2018-11-05T06:51:50.967Z,13.43
2018-11-05T07:02:53.234Z,13.38
2018-11-05T07:13:52.888Z,13.52
2018-11-05T07:24:56.263Z,13.68
2018-11-05T07:35:57.294Z,13.74
2018-11-05T07:46:59.838Z,13.86
2018-11-05T07:58:02.620Z,14.07
2018-11-05T08:09:05.610Z,14.02
2018-11-05T08:20:08.429Z,14.27
2018-11-05T08:31:11.677Z,14.36
2018-11-05T08:42:13.771Z,14.56
2018-11-05T08:53:15.816Z,14.23
2018-11-05T09:04:13.660Z,14.46
2018-11-05T09:15:16.492Z,14.31
2018-11-05T09:26:19.911Z,14.46
2018-11-05T09:37:22.671Z,14.59
2018-11-05T09:48:25.815Z,14.94
2018-11-05T09:59:28.618Z,14.69
2018-11-05T10:10:32.386Z,14.78
2018-11-05T10:21:34.007Z,14.78
2018-11-05T10:32:35.873Z,15.06
2018-11-05T10:43:34.407Z,15.30
2018-11-05T10:54:36.002Z,15.18
2018-11-05T11:05:38.285Z,15.30
2018-11-05T11:16:40.640Z,15.23
2018-11-05T11:27:42.612Z,15.20
2018-11-05T11:38:44.043Z,15.16
2018-11-05T11:49:44.496Z,14.97
2018-11-05T12:00:47.065Z,15.08
2018-11-05T12:11:48.308Z,15.45
2018-11-05T12:22:48.973Z,15.33
2018-11-05T12:33:50.070Z,14.97
2018-11-05T12:44:52.055Z,15.01
2018-11-05T12:55:55.219Z,15.01
2018-11-05T13:06:57.698Z,14.95
2018-11-05T13:17:58.009Z,14.95
2018-11-05T13:29:00.081Z,14.94
2018-11-05T13:40:01.858Z,14.79
2018-11-05T13:51:04.445Z,14.97
2018-11-05T14:02:04.414Z,14.83
2018-11-05T14:13:03.179Z,14.69
2018-11-05T14:24:05.030Z,14.61
2018-11-05T14:35:05.699Z,14.56
2018-11-05T14:46:05.130Z,14.59
2018-11-05T14:57:06.486Z,14.41
2018-11-05T15:08:07.853Z,14.47
2018-11-05T15:19:10.495Z,14.35
2018-11-05T15:30:10.889Z,14.35
2018-11-05T15:41:12.983Z,14.23
2018-11-05T15:52:11.916Z,14.24
2018-11-05T16:03:05.160Z,14.17
2018-11-05T16:14:05.431Z,14.23
2018-11-05T16:25:05.513Z,14.13
2018-11-05T16:36:06.701Z,14.16
2018-11-05T16:47:09.239Z,14.19
2018-11-05T16:58:10.591Z,14.16
2018-11-05T17:09:13.631Z,14.16
2018-11-05T17:20:12.230Z,14.10
2018-11-05T17:31:09.813Z,14.11
2018-11-05T17:42:10.662Z,14.13
2018-11-05T17:53:08.326Z,14.05
2018-11-05T18:04:10.364Z,14.05
2018-11-05T18:15:12.161Z,13.96
2018-11-05T18:26:14.104Z,13.98
2018-11-05T18:37:09.445Z,13.83
2018-11-05T18:48:10.548Z,13.68
2018-11-05T18:59:10.308Z,13.58
2018-11-05T19:10:12.379Z,13.48
2018-11-05T19:21:13.047Z,13.40
2018-11-05T19:32:12.022Z,13.48
2018-11-05T19:43:12.558Z,13.37
2018-11-05T19:53:48.661Z,13.48
2018-11-05T20:04:47.790Z,13.41
2018-11-05T20:15:43.612Z,13.41
2018-11-05T20:26:44.067Z,13.29
2018-11-05T20:37:42.365Z,13.27
2018-11-05T20:48:43.393Z,13.29
2018-11-05T20:59:41.374Z,13.21
2018-11-05T21:10:40.815Z,13.21
2018-11-05T21:21:39.899Z,13.14
2018-11-05T21:32:41.133Z,13.14
2018-11-05T21:43:43.209Z,13.11
2018-11-05T21:54:45.774Z,13.03
2018-11-05T22:05:48.366Z,12.94
2018-11-05T22:16:50.118Z,13.00
2018-11-05T22:27:53.172Z,12.91
2018-11-05T22:38:54.672Z,12.85
2018-11-05T22:49:55.226Z,12.91
2018-11-05T23:00:53.413Z,12.89
2018-11-05T23:11:52.978Z,13.00
2018-11-05T23:22:53.580Z,12.94
2018-11-05T23:33:55.333Z,12.97
2018-11-05T23:44:54.877Z,12.91
2018-11-05T23:55:57.130Z,12.86
